createdAt,value
2022-07-28T00:02:40.229Z,2.30
2022-07-28T00:07:43.171Z,2.30
2022-07-28T00:12:45.907Z,2.50
2022-07-28T00:17:48.651Z,2.80
2022-07-28T00:22:51.359Z,2.20
2022-07-28T00:27:54.096Z,2.40
2022-07-28T00:32:56.825Z,2.20
2022-07-28T00:38:00.423Z,2.20
2022-07-28T00:43:03.992Z,2.40
2022-07-28T00:48:06.823Z,2.40
2022-07-28T00:53:09.557Z,2.30
2022-07-28T00:58:12.416Z,2.30
2022-07-28T01:08:27.569Z,2.50
2022-07-28T01:13:40.768Z,2.50
2022-07-28T01:18:54.715Z,2.50
2022-07-28T01:24:16.581Z,2.70
2022-07-28T01:29:31.693Z,3.40
2022-07-28T01:34:45.648Z,3.00
2022-07-28T01:39:53.387Z,2.50
2022-07-28T01:44:59.476Z,3.00
2022-07-28T01:50:06.816Z,2.80
2022-07-28T01:55:13.317Z,2.80
2022-07-28T02:00:17.855Z,3.30
2022-07-28T02:05:22.525Z,2.50
2022-07-28T02:10:27.053Z,2.70
2022-07-28T02:15:32.285Z,2.80
2022-07-28T02:20:36.069Z,3.10
2022-07-28T02:25:41.001Z,2.70
2022-07-28T02:31:13.513Z,2.60
2022-07-28T02:36:42.280Z,3.20
2022-07-28T02:41:55.646Z,2.80
2022-07-28T02:47:00.877Z,3.40
2022-07-28T02:52:07.817Z,2.80
2022-07-28T02:57:13.319Z,3.20
2022-07-28T03:02:20.229Z,2.70
2022-07-28T03:07:23.164Z,3.10
2022-07-28T03:22:32.111Z,3.20
2022-07-28T03:32:47.197Z,2.80
2022-07-28T03:38:11.480Z,3.20
2022-07-28T03:43:16.915Z,3.10
2022-07-28T03:48:23.500Z,3.20
2022-07-28T03:53:28.205Z,3.40
2022-07-28T03:58:31.358Z,3.50
2022-07-28T04:03:42.576Z,2.90
2022-07-28T04:08:47.432Z,3.10
2022-07-28T04:13:50.143Z,3.50
2022-07-28T04:18:52.941Z,2.90
2022-07-28T04:24:01.396Z,3.40
2022-07-28T04:29:04.930Z,3.10
2022-07-28T04:34:07.638Z,3.30
2022-07-28T04:39:13.444Z,3.30
2022-07-28T04:44:17.766Z,3.60
2022-07-28T04:49:20.733Z,3.10
2022-07-28T04:59:29.783Z,3.10
2022-07-28T05:04:35.265Z,3.20
2022-07-28T05:09:38.123Z,2.90
2022-07-28T05:14:40.854Z,3.20
2022-07-28T05:19:43.626Z,3.20
2022-07-28T05:29:51.403Z,3.30
2022-07-28T05:34:54.462Z,3.30
2022-07-28T05:39:57.262Z,3.20
2022-07-28T05:50:02.801Z,3.20
2022-07-28T06:00:15.507Z,3.20
2022-07-28T06:05:21.378Z,3.20
2022-07-28T06:10:27.081Z,3.40
2022-07-28T06:15:29.834Z,3.30
2022-07-28T06:25:35.334Z,3.10
2022-07-28T06:30:38.071Z,2.70
2022-07-28T06:35:48.205Z,2.70
2022-07-28T06:40:54.354Z,3.40
2022-07-28T06:45:57.044Z,2.70
2022-07-28T06:50:59.937Z,3.50
2022-07-28T06:56:05.229Z,2.60
2022-07-28T07:01:09.033Z,3.10
2022-07-28T07:06:11.939Z,3.00
2022-07-28T07:11:14.676Z,3.30
2022-07-28T07:16:17.624Z,2.70
2022-07-28T07:21:20.649Z,2.80
2022-07-28T07:26:25.743Z,2.80
2022-07-28T07:31:28.755Z,2.90
2022-07-28T07:36:31.765Z,2.80
2022-07-28T07:41:34.523Z,2.50
2022-07-28T07:46:38.671Z,2.90
2022-07-28T07:51:41.875Z,3.20
2022-07-28T07:56:44.641Z,2.60
2022-07-28T08:01:50.934Z,3.00
2022-07-28T08:06:53.869Z,2.80
2022-07-28T08:11:57.667Z,2.80
2022-07-28T08:17:00.450Z,2.30
2022-07-28T08:22:03.231Z,3.00
2022-07-28T08:27:05.967Z,2.70
2022-07-28T08:32:08.674Z,2.70
2022-07-28T08:37:11.502Z,3.00
2022-07-28T08:42:29.272Z,2.20
2022-07-28T08:47:45.655Z,2.90
2022-07-28T08:52:51.072Z,2.80
2022-07-28T08:57:56.385Z,2.10
2022-07-28T09:03:03.587Z,2.70
2022-07-28T09:08:06.710Z,2.20
2022-07-28T09:13:09.596Z,2.40
2022-07-28T09:18:17.768Z,2.10
2022-07-28T09:23:41.959Z,2.40
2022-07-28T09:28:55.291Z,2.70
2022-07-28T09:34:01.212Z,2.20
2022-07-28T09:39:04.171Z,2.60
2022-07-28T09:44:18.544Z,2.40
2022-07-28T09:49:28.066Z,2.70
2022-07-28T09:54:31.784Z,2.90
2022-07-28T09:59:48.412Z,2.50
2022-07-28T10:04:56.863Z,2.50
2022-07-28T10:10:05.609Z,2.00
2022-07-28T10:15:38.940Z,2.30
2022-07-28T10:20:53.821Z,2.20
2022-07-28T10:25:58.043Z,2.00
2022-07-28T10:31:02.237Z,2.10
2022-07-28T10:36:05.600Z,2.00
2022-07-28T10:41:09.804Z,2.10
2022-07-28T10:46:16.177Z,2.00
2022-07-28T10:51:22.004Z,2.10
2022-07-28T10:56:46.124Z,2.00
2022-07-28T11:01:51.134Z,2.10
2022-07-28T11:07:10.802Z,1.70
2022-07-28T11:12:16.027Z,2.00
2022-07-28T11:17:24.582Z,2.30
2022-07-28T11:22:36.180Z,1.90
2022-07-28T11:27:42.785Z,1.80
2022-07-28T11:32:51.445Z,1.80
2022-07-28T11:38:03.679Z,1.70
2022-07-28T11:43:32.001Z,2.00
2022-07-28T11:48:44.876Z,1.90
2022-07-28T11:53:50.444Z,1.90
2022-07-28T11:58:58.307Z,1.90
2022-07-28T12:04:10.388Z,2.00
2022-07-28T12:09:13.692Z,2.20
2022-07-28T12:14:17.564Z,1.90
2022-07-28T12:19:21.405Z,1.80
2022-07-28T12:24:28.251Z,2.00
2022-07-28T12:29:35.779Z,1.80
2022-07-28T12:34:40.870Z,1.80
2022-07-28T12:39:44.349Z,1.90
2022-07-28T12:44:48.805Z,1.70
2022-07-28T12:50:14.915Z,2.00
2022-07-28T12:55:27.184Z,2.00
2022-07-28T13:05:56.215Z,2.20
2022-07-28T13:10:59.388Z,2.10
2022-07-28T13:16:15.975Z,2.00
2022-07-28T13:21:38.806Z,2.10
2022-07-28T13:26:46.309Z,1.90
2022-07-28T13:31:49.408Z,4.40
2022-07-28T13:36:52.732Z,2.00
2022-07-28T13:41:56.920Z,2.00
2022-07-28T13:47:03.253Z,2.30
2022-07-28T13:52:13.195Z,2.50
2022-07-28T13:57:16.423Z,2.30
2022-07-28T14:02:19.096Z,2.20
2022-07-28T14:07:21.897Z,1.80
2022-07-28T14:12:24.925Z,2.00
2022-07-28T14:17:45.669Z,2.00
2022-07-28T14:22:49.115Z,2.40
2022-07-28T14:27:53.421Z,1.90
2022-07-28T14:32:59.420Z,1.90
2022-07-28T14:38:42.432Z,1.70
2022-07-28T14:43:24.999Z,1.90
2022-07-28T14:48:27.773Z,2.30
2022-07-28T14:53:30.593Z,2.40
2022-07-28T14:58:33.536Z,2.00
2022-07-28T15:03:36.775Z,2.30
2022-07-28T15:08:39.563Z,1.60
2022-07-28T15:13:42.277Z,2.10
2022-07-28T15:18:45.312Z,1.50
2022-07-28T15:23:48.614Z,1.90
2022-07-28T15:28:51.314Z,1.40
2022-07-28T15:33:57.971Z,1.70
2022-07-28T15:39:01.060Z,1.70
2022-07-28T15:44:05.088Z,1.50
2022-07-28T15:49:10.393Z,1.60
2022-07-28T15:54:13.538Z,1.80
2022-07-28T15:59:16.480Z,1.80
2022-07-28T16:04:19.480Z,2.00
2022-07-28T16:09:22.806Z,1.80
2022-07-28T16:14:25.531Z,2.00
2022-07-28T16:19:47.742Z,1.70
2022-07-28T16:24:51.461Z,1.60
2022-07-28T16:29:54.533Z,1.70
2022-07-28T16:34:57.385Z,2.30
2022-07-28T16:40:00.161Z,3.10
2022-07-28T16:45:04.387Z,2.40
2022-07-28T16:50:07.571Z,2.20
2022-07-28T16:55:16.055Z,2.20
2022-07-28T17:00:21.570Z,1.90
2022-07-28T17:05:25.013Z,2.20
2022-07-28T17:10:28.070Z,2.00
2022-07-28T17:15:31.044Z,2.60
2022-07-28T17:20:35.219Z,2.10
2022-07-28T17:26:09.001Z,2.00
2022-07-28T17:31:02.275Z,2.30
2022-07-28T17:36:05.161Z,2.40
2022-07-28T17:41:09.244Z,2.10
2022-07-28T17:46:12.030Z,2.00
2022-07-28T17:51:18.212Z,2.20
2022-07-28T17:56:21.296Z,2.00
2022-07-28T18:01:24.949Z,2.30
2022-07-28T18:06:38.433Z,1.90
2022-07-28T18:11:57.931Z,1.90
2022-07-28T18:17:01.420Z,1.90
2022-07-28T18:22:05.273Z,2.00
2022-07-28T18:27:08.011Z,2.80
2022-07-28T18:32:12.331Z,2.00
2022-07-28T18:37:15.060Z,1.90
2022-07-28T18:42:17.853Z,2.10
2022-07-28T18:47:21.196Z,2.30
2022-07-28T18:52:24.733Z,3.80
2022-07-28T18:57:27.908Z,4.20
2022-07-28T19:02:30.681Z,3.00
2022-07-28T19:07:33.552Z,5.00
2022-07-28T19:12:36.510Z,7.80
2022-07-28T19:17:40.589Z,4.70
2022-07-28T19:22:43.411Z,4.60
2022-07-28T19:32:48.822Z,11.70
2022-07-28T19:37:51.628Z,5.20
2022-07-28T19:42:54.381Z,5.00
2022-07-28T19:47:57.127Z,5.60
2022-07-28T19:52:59.942Z,4.30
2022-07-28T19:58:03.845Z,3.60
2022-07-28T20:04:00.192Z,4.20
2022-07-28T20:08:31.377Z,6.90
2022-07-28T20:13:34.341Z,6.70
2022-07-28T20:23:41.157Z,3.40
2022-07-28T20:28:44.471Z,7.20
2022-07-28T20:33:47.501Z,4.20
2022-07-28T20:44:18.310Z,3.40
2022-07-28T20:49:15.705Z,2.50
2022-07-28T20:54:19.027Z,2.70
2022-07-28T20:59:27.371Z,2.80
2022-07-28T21:04:30.894Z,2.70
2022-07-28T21:09:33.744Z,2.70
2022-07-28T21:14:36.529Z,2.80
2022-07-28T21:19:39.227Z,3.00
2022-07-28T21:24:42.018Z,3.60
2022-07-28T21:29:44.873Z,5.00
2022-07-28T21:34:47.669Z,5.70
2022-07-28T21:39:50.394Z,4.30
2022-07-28T21:44:53.102Z,2.90
2022-07-28T21:49:55.837Z,3.60
2022-07-28T21:55:00.975Z,3.90
2022-07-28T22:00:08.364Z,5.60
2022-07-28T22:05:11.245Z,5.80
2022-07-28T22:10:14.545Z,5.30
2022-07-28T22:15:17.762Z,8.00
2022-07-28T22:20:20.505Z,10.50
2022-07-28T22:25:23.257Z,5.90
2022-07-28T22:30:26.150Z,4.60
2022-07-28T22:35:28.863Z,4.50
2022-07-28T22:40:31.607Z,4.00
2022-07-28T22:45:50.165Z,4.10
2022-07-28T22:50:54.375Z,4.80
2022-07-28T22:55:57.173Z,4.40
2022-07-28T23:01:00.177Z,4.60
2022-07-28T23:06:03.830Z,4.70
2022-07-28T23:11:06.687Z,4.40
2022-07-28T23:16:13.432Z,4.30
2022-07-28T23:21:16.196Z,4.00
2022-07-28T23:26:19.048Z,4.20
2022-07-28T23:31:21.852Z,3.80
2022-07-28T23:36:27.261Z,4.70
2022-07-28T23:41:30.697Z,5.40
2022-07-28T23:46:33.476Z,5.60
2022-07-28T23:51:47.798Z,4.40
2022-07-28T23:56:55.720Z,4.80
